Time;durP1;ratioP1;P1;durP2;ratioP2;P2;SDS_P1;SDS_P2;PMS_P1;PMS_P2;Temp;Humidity;BMP_temperature;BMP_pressure;BME280_temperature;BME280_humidity;BME280_pressure;Samples;Min_cycle;Max_cycle;Signal;HPM_P1;HPM_P2
2023/01/16 00:00:50;;;;;;;4.13;0.60;;;;;;;3.55;96.05;99347.63;4992615;28;20035;-77
2023/01/16 00:03:16;;;;;;;2.35;0.82;;;;;;;3.53;95.85;99340.66;4992798;28;20117;-76
2023/01/16 00:05:42;;;;;;;2.08;0.50;;;;;;;3.53;96.21;99346.72;4992399;28;20125;-75
2023/01/16 00:08:07;;;;;;;3.30;0.68;;;;;;;3.55;96.82;99338.94;4993091;28;20038;-75
2023/01/16 00:10:33;;;;;;;3.25;0.40;;;;;;;3.59;96.34;99338.94;4992857;28;20145;-76
2023/01/16 00:12:58;;;;;;;1.90;0.40;;;;;;;3.74;96.17;99338.09;4993089;28;20039;-76
2023/01/16 00:15:23;;;;;;;2.50;0.25;;;;;;;3.86;95.82;99337.25;4995437;28;20093;-76
2023/01/16 00:17:49;;;;;;;3.75;0.30;;;;;;;4.01;95.43;99336.41;4997412;28;20173;-76
2023/01/16 00:20:15;;;;;;;4.13;0.55;;;;;;;4.20;93.82;99338.16;4996188;28;20041;-76
2023/01/16 00:22:41;;;;;;;2.13;0.60;;;;;;;4.34;93.37;99336.41;4996185;28;20057;-76
2023/01/16 00:25:06;;;;;;;2.35;0.28;;;;;;;4.47;92.99;99331.19;4996376;28;20042;-76
2023/01/16 00:27:32;;;;;;;2.28;0.30;;;;;;;4.57;92.24;99327.69;4995393;28;20523;-76
2023/01/16 00:29:57;;;;;;;1.83;0.40;;;;;;;4.66;92.11;99326.81;4996348;28;20121;-76
2023/01/16 00:32:22;;;;;;;5.18;0.60;;;;;;;4.72;91.48;99319.84;4996776;28;20114;-76
2023/01/16 00:34:48;;;;;;;1.40;0.40;;;;;;;4.74;90.64;99312.88;4996396;28;20026;-75
2023/01/16 00:37:13;;;;;;;1.33;0.30;;;;;;;4.72;90.19;99311.13;4996028;28;20041;-75
2023/01/16 00:39:39;;;;;;;2.72;0.45;;;;;;;4.68;90.02;99305.03;4996337;28;20046;-76
2023/01/16 00:42:05;;;;;;;1.02;0.30;;;;;;;4.56;90.23;99310.31;4995349;28;20051;-76
2023/01/16 00:44:30;;;;;;;0.77;0.30;;;;;;;4.37;90.92;99302.44;4994553;28;20050;-77
2023/01/16 00:46:56;;;;;;;1.17;0.38;;;;;;;4.23;91.71;99305.97;4994769;28;20034;-76
2023/01/16 00:49:21;;;;;;;2.40;0.20;;;;;;;4.09;92.23;99295.53;4995061;28;20088;-76
2023/01/16 00:51:46;;;;;;;2.40;0.38;;;;;;;3.95;93.08;99290.28;4996041;28;20042;-77
2023/01/16 00:54:12;;;;;;;2.80;0.40;;;;;;;3.88;94.01;99294.63;4996237;28;20049;-76
2023/01/16 00:56:37;;;;;;;1.77;0.50;;;;;;;3.80;94.16;99283.31;4995559;28;20039;-76
2023/01/16 00:59:02;;;;;;;1.90;0.30;;;;;;;3.72;94.36;99278.09;4995700;28;20034;-76
2023/01/16 01:01:28;;;;;;;1.30;0.25;;;;;;;3.63;95.05;99277.19;4994057;28;20471;-75
2023/01/16 01:03:53;;;;;;;2.05;0.55;;;;;;;3.58;95.57;99269.34;4994214;28;20540;-76
2023/01/16 01:06:18;;;;;;;5.07;0.88;;;;;;;3.51;96.09;99263.28;4993659;28;20040;-76
2023/01/16 01:08:44;;;;;;;1.10;0.35;;;;;;;3.47;96.28;99271.06;4994184;28;20117;-76
2023/01/16 01:11:11;;;;;;;2.22;0.40;;;;;;;3.42;96.16;99263.22;4995386;28;20070;-76
2023/01/16 01:13:37;;;;;;;2.97;1.08;;;;;;;3.40;96.52;99269.31;4995367;28;20129;-75
2023/01/16 01:16:03;;;;;;;1.65;0.30;;;;;;;3.34;96.84;99270.16;4994798;28;20038;-75
2023/01/16 01:18:29;;;;;;;0.63;0.22;;;;;;;3.28;96.90;99260.59;4995076;28;20080;-75
2023/01/16 01:20:54;;;;;;;4.93;0.50;;;;;;;3.18;97.31;99258.81;4995321;28;20504;-75
2023/01/16 01:23:20;;;;;;;3.33;0.65;;;;;;;3.12;98.14;99260.53;4995579;28;20485;-76
2023/01/16 01:25:45;;;;;;;1.80;0.50;;;;;;;3.06;98.25;99259.63;4993371;28;20046;-77
2023/01/16 01:28:10;;;;;;;5.38;0.63;;;;;;;3.01;97.98;99257.88;4995232;28;20041;-75
2023/01/16 01:30:37;;;;;;;4.20;0.38;;;;;;;2.96;98.67;99257.88;4995396;28;20038;-76
2023/01/16 01:33:02;;;;;;;1.95;0.35;;;;;;;2.94;99.33;99249.19;4995493;28;20645;-77
2023/01/16 01:35:28;;;;;;;4.75;1.02;;;;;;;2.96;99.14;99251.78;4996216;28;20138;-76
2023/01/16 01:37:53;;;;;;;1.30;0.38;;;;;;;2.97;99.13;99248.34;4997236;28;20038;-76
2023/01/16 01:40:18;;;;;;;2.70;0.55;;;;;;;2.95;99.20;99244.84;4996610;28;20034;-76
2023/01/16 01:42:44;;;;;;;2.60;0.47;;;;;;;2.95;99.20;99250.91;4995431;28;20070;-77
2023/01/16 01:45:20;;;;;;;1.23;0.38;;;;;;;2.95;98.94;99232.66;4996678;28;20045;-75
2023/01/16 01:48:15;;;;;;;1.42;0.47;;;;;;;2.95;99.01;99240.50;4993625;28;20065;-76
2023/01/16 01:50:58;;;;;;;1.25;0.52;;;;;;;2.97;99.27;99238.78;4994060;28;20057;-76
2023/01/16 01:53:39;;;;;;;2.30;0.47;;;;;;;2.90;99.21;99242.22;4992956;28;20133;-76
2023/01/16 01:56:15;;;;;;;2.72;0.40;;;;;;;2.86;99.55;99240.47;4993815;28;20073;-77
2023/01/16 01:58:42;;;;;;;1.52;0.60;;;;;;;2.87;99.26;99239.59;4994205;28;20038;-76
2023/01/16 02:01:14;;;;;;;1.85;0.55;;;;;;;2.84;98.71;99237.84;5001025;28;20129;-76
2023/01/16 02:03:45;;;;;;;4.32;0.40;;;;;;;2.80;98.83;99238.72;4993958;28;20093;-76
2023/01/16 02:06:19;;;;;;;4.85;0.52;;;;;;;2.76;99.53;99243.91;4976127;28;20074;-76
2023/01/16 02:08:47;;;;;;;4.25;0.77;;;;;;;2.73;99.98;99238.69;4992968;28;20412;-76
2023/01/16 02:11:36;;;;;;;2.85;0.70;;;;;;;2.73;99.88;99229.13;4991015;28;20098;-76
2023/01/16 02:14:07;;;;;;;1.92;0.43;;;;;;;2.75;99.65;99227.41;4991388;28;20042;-76
2023/01/16 02:19:53;;;;;;;2.42;0.32;;;;;;;2.93;99.69;99216.16;4990436;28;20034;-76
2023/01/16 02:22:30;;;;;;;3.95;0.60;;;;;;;3.06;98.91;99211.84;4993359;28;20030;-77
2023/01/16 02:25:25;;;;;;;4.07;1.15;;;;;;;3.20;98.13;99209.31;4991841;28;20031;-75
2023/01/16 02:27:57;;;;;;;0.90;0.40;;;;;;;3.28;97.17;99200.63;4992297;28;20042;-77
2023/01/16 02:31:02;;;;;;;2.75;0.38;;;;;;;3.39;96.66;99194.56;4994333;28;20035;-76
2023/01/16 02:34:00;;;;;;;2.63;1.13;;;;;;;3.37;96.33;99191.06;4989562;28;20038;-78
2023/01/16 02:36:50;;;;;;;4.07;0.65;;;;;;;3.38;96.09;99180.66;4991667;28;20053;-79
2023/01/16 02:39:27;;;;;;;2.25;0.52;;;;;;;3.32;96.08;99182.38;4993156;28;20042;-78
2023/01/16 02:42:32;;;;;;;0.68;0.20;;;;;;;3.31;96.65;99185.84;5004617;28;20042;-76
2023/01/16 02:45:10;;;;;;;2.40;0.65;;;;;;;3.36;96.70;99179.78;4980500;28;20046;-76
2023/01/16 02:47:44;;;;;;;2.00;0.45;;;;;;;3.40;96.41;99178.91;4989752;28;20058;-76
2023/01/16 02:50:38;;;;;;;0.90;0.50;;;;;;;3.43;96.46;99165.88;4993698;28;20674;-77
2023/01/16 02:53:14;;;;;;;2.67;0.45;;;;;;;3.38;96.17;99167.63;4989084;28;20030;-76
2023/01/16 02:55:47;;;;;;;3.45;0.57;;;;;;;3.24;96.20;99172.78;4981994;28;20042;-76
2023/01/16 02:58:14;;;;;;;2.00;0.30;;;;;;;3.10;97.08;99163.22;4991931;28;20512;-76
2023/01/16 03:00:56;;;;;;;2.13;0.50;;;;;;;3.05;97.42;99164.06;4993669;28;20033;-76
2023/01/16 03:03:40;;;;;;;4.13;0.40;;;;;;;2.99;97.79;99160.59;4992440;28;20121;-76
2023/01/16 03:06:42;;;;;;;2.25;0.60;;;;;;;2.88;97.88;99159.69;4992806;28;20080;-76
2023/01/16 03:09:34;;;;;;;1.92;0.43;;;;;;;2.74;98.08;99146.63;4990598;28;20401;-77
2023/01/16 03:11:59;;;;;;;1.83;0.40;;;;;;;2.66;98.71;99161.34;4991415;28;20038;-76
2023/01/16 03:14:35;;;;;;;3.22;0.60;;;;;;;2.58;98.94;99138.75;4993897;28;20031;-76
2023/01/16 03:17:25;;;;;;;2.55;0.40;;;;;;;2.44;99.93;99132.63;4993334;28;20045;-76
2023/01/16 03:20:13;;;;;;;3.30;0.57;;;;;;;2.40;100.00;99126.50;4994012;28;20042;-77
2023/01/16 03:22:43;;;;;;;1.20;0.50;;;;;;;2.34;99.97;99125.63;4994057;28;20078;-77
2023/01/16 03:25:36;;;;;;;1.70;0.32;;;;;;;2.26;100.00;99114.31;4993958;28;20034;-76
2023/01/16 03:28:20;;;;;;;3.38;0.50;;;;;;;2.14;100.00;99115.97;4991091;28;20034;-76
2023/01/16 03:31:06;;;;;;;2.30;0.52;;;;;;;2.07;100.00;99111.63;4989940;28;20412;-76
2023/01/16 03:33:43;;;;;;;2.65;0.57;;;;;;;1.99;100.00;99121.09;4989264;28;20081;-76
2023/01/16 03:36:35;;;;;;;5.20;0.50;;;;;;;1.92;100.00;99108.94;4991225;28;20172;-76
2023/01/16 03:39:06;;;;;;;2.97;0.40;;;;;;;1.86;100.00;99112.38;4991478;28;20042;-77
2023/01/16 03:41:35;;;;;;;2.85;0.50;;;;;;;1.80;100.00;99121.84;4989024;28;20580;-76
2023/01/16 03:44:05;;;;;;;2.95;0.63;;;;;;;1.77;100.00;99121.84;4992497;28;20049;-76
2023/01/16 03:46:37;;;;;;;3.00;0.55;;;;;;;1.75;100.00;99122.69;4990784;28;20597;-76
2023/01/16 03:49:11;;;;;;;3.38;0.50;;;;;;;1.78;100.00;99118.38;4989437;28;20136;-76
2023/01/16 03:51:43;;;;;;;2.58;0.40;;;;;;;1.81;100.00;99119.28;4991584;28;20034;-77
2023/01/16 03:54:21;;;;;;;;;;;;;;;1.87;100.00;99118.44;4991743;28;20058;-78
2023/01/16 03:57:01;;;;;;;1.95;0.75;;;;;;;1.93;100.00;99113.28;4991104;28;19918;-77
2023/01/16 03:59:27;;;;;;;2.55;0.40;;;;;;;1.91;100.00;99104.56;4988741;28;20125;-77
2023/01/16 04:02:02;;;;;;;6.65;0.63;;;;;;;1.90;100.00;99097.66;4991552;28;20133;-76
2023/01/16 04:04:45;;;;;;;8.07;0.93;;;;;;;1.90;100.00;99092.44;5006640;28;20030;-77
2023/01/16 04:07:18;;;;;;;;;;;;;;;1.87;100.00;99087.22;4991280;28;20064;-77
2023/01/16 04:09:43;;;;;;;;;;;;;;;1.81;100.00;99088.06;4988557;28;20395;-76
2023/01/16 04:12:12;;;;;;;7.72;0.60;;;;;;;1.73;100.00;99084.56;4991951;28;19953;-76
2023/01/16 04:14:39;;;;;;;3.63;0.30;;;;;;;1.64;100.00;99077.53;4990398;28;20121;-77
2023/01/16 04:17:06;;;;;;;3.20;0.43;;;;;;;1.62;100.00;99074.06;4990633;28;20038;-76
2023/01/16 04:19:33;;;;;;;2.53;0.68;;;;;;;1.61;100.00;99067.13;4991104;28;20034;-78
2023/01/16 04:21:58;;;;;;;3.15;0.40;;;;;;;1.60;100.00;99068.00;4992590;28;20382;-76
2023/01/16 04:24:24;;;;;;;2.17;0.50;;;;;;;1.62;100.00;99067.97;4992296;28;20034;-77
2023/01/16 04:26:51;;;;;;;2.70;0.40;;;;;;;1.61;100.00;99056.72;4991700;28;20034;-77
2023/01/16 04:29:17;;;;;;;3.25;0.50;;;;;;;1.61;100.00;99050.66;4991024;28;20062;-76
2023/01/16 04:31:42;;;;;;;2.45;0.43;;;;;;;1.59;100.00;99053.22;4992362;28;20081;-76
2023/01/16 04:34:07;;;;;;;3.83;0.40;;;;;;;1.58;100.00;99054.09;4990865;28;20026;-78
2023/01/16 04:36:33;;;;;;;2.72;0.30;;;;;;;1.57;100.00;99049.75;4983561;28;20038;-76
2023/01/16 04:38:58;;;;;;;2.00;0.80;;;;;;;1.55;100.00;99041.09;4992171;28;20088;-76
2023/01/16 04:41:35;;;;;;;4.88;1.15;;;;;;;1.54;100.00;99045.41;4991066;28;20042;-76
2023/01/16 04:44:06;;;;;;;2.78;0.40;;;;;;;1.55;100.00;99033.28;4991868;28;20041;-76
2023/01/16 04:46:31;;;;;;;0.82;0.25;;;;;;;1.52;100.00;99022.88;4990156;28;20070;-76
2023/01/16 04:48:57;;;;;;;3.65;0.60;;;;;;;1.51;100.00;99031.53;4993260;28;20038;-76
2023/01/16 04:51:22;;;;;;;1.52;0.43;;;;;;;1.47;100.00;99025.44;4975441;28;20034;-76
2023/01/16 04:53:48;;;;;;;3.13;0.43;;;;;;;1.50;100.00;99020.25;4991637;28;20509;-76
2023/01/16 04:56:13;;;;;;;1.33;0.35;;;;;;;1.51;100.00;99008.13;4991279;28;20046;-77
2023/01/16 04:58:38;;;;;;;6.82;1.80;;;;;;;1.51;100.00;99002.91;4993736;28;20042;-76
2023/01/16 05:01:03;;;;;;;7.15;1.15;;;;;;;1.52;100.00;99002.94;4996005;28;20038;-76
2023/01/16 05:03:29;;;;;;;3.10;0.50;;;;;;;1.52;100.00;98996.88;4997272;28;20117;-77
2023/01/16 05:05:54;;;;;;;2.58;0.55;;;;;;;1.52;100.00;98991.69;4995531;28;20109;-77
2023/01/16 05:08:19;;;;;;;2.05;0.70;;;;;;;1.54;100.00;98985.59;4996559;28;20054;-76
2023/01/16 05:10:45;;;;;;;4.60;0.55;;;;;;;1.58;100.00;98988.25;4998022;28;20038;-77
2023/01/16 05:13:11;;;;;;;3.47;0.47;;;;;;;1.58;100.00;98991.69;4994072;28;20472;-77
2023/01/16 05:15:36;;;;;;;1.95;0.57;;;;;;;1.58;100.00;98983.91;4997526;28;20064;-77
2023/01/16 05:18:02;;;;;;;2.95;0.25;;;;;;;1.60;100.00;98982.19;4998067;28;20038;-76
2023/01/16 05:20:28;;;;;;;0.98;0.20;;;;;;;1.62;100.00;98985.63;4997398;28;20038;-77
2023/01/16 05:22:53;;;;;;;3.47;0.60;;;;;;;1.63;100.00;98979.59;4997511;28;20042;-77
2023/01/16 05:25:18;;;;;;;4.63;0.50;;;;;;;1.65;100.00;98971.78;4995747;28;20045;-76
2023/01/16 05:27:49;;;;;;;1.15;0.25;;;;;;;1.70;100.00;98973.56;4995256;28;20038;-76
2023/01/16 05:30:14;;;;;;;3.55;0.30;;;;;;;1.73;100.00;98959.72;4996135;28;20674;-76
2023/01/16 05:32:40;;;;;;;3.38;0.50;;;;;;;1.77;100.00;98961.44;4998328;28;20117;-76
2023/01/16 05:35:05;;;;;;;2.17;0.45;;;;;;;1.82;100.00;98953.66;4999996;28;20034;-76
2023/01/16 05:37:31;;;;;;;2.33;0.68;;;;;;;1.85;99.91;98958.88;5012285;28;20042;-77
2023/01/16 05:39:57;;;;;;;2.75;0.60;;;;;;;1.92;100.00;98958.91;4997912;28;20031;-76
2023/01/16 05:42:24;;;;;;;3.70;0.55;;;;;;;2.00;100.00;98961.53;4994759;28;20046;-76
2023/01/16 05:44:51;;;;;;;3.35;0.80;;;;;;;2.09;99.82;98958.94;4995686;28;20034;-76
2023/01/16 05:47:18;;;;;;;5.18;0.80;;;;;;;2.21;99.47;98952.03;4996813;28;20489;-76
2023/01/16 05:49:44;;;;;;;4.90;0.90;;;;;;;2.30;99.49;98941.63;4998779;28;20030;-77
2023/01/16 05:52:09;;;;;;;5.28;1.05;;;;;;;2.38;99.68;98935.59;4992167;28;20074;-78
2023/01/16 05:54:34;;;;;;;2.35;0.80;;;;;;;2.52;99.28;98929.53;4994155;28;20027;-76
2023/01/16 05:57:00;;;;;;;5.65;1.00;;;;;;;2.64;97.67;98921.69;4993302;28;20101;-77
2023/01/16 05:59:25;;;;;;;5.15;1.10;;;;;;;2.81;97.37;98921.69;4996126;28;20042;-76
2023/01/16 06:01:50;;;;;;;9.70;3.92;;;;;;;2.91;96.64;98920.81;4994334;28;20034;-76
2023/01/16 06:04:17;;;;;;;4.03;1.20;;;;;;;2.95;95.64;98912.13;4996919;28;20033;-76
2023/01/16 06:06:43;;;;;;;5.35;1.00;;;;;;;3.04;95.30;98906.91;4995806;28;20038;-76
2023/01/16 06:09:08;;;;;;;2.50;0.77;;;;;;;3.08;94.77;98903.41;4995386;28;20045;-76
2023/01/16 06:11:33;;;;;;;5.80;0.75;;;;;;;3.11;94.06;98899.06;4995824;28;20028;-77
2023/01/16 06:14:03;;;;;;;4.80;1.02;;;;;;;3.10;94.23;98899.94;4996765;28;20126;-76
2023/01/16 06:16:28;;;;;;;4.72;0.93;;;;;;;3.14;94.13;98896.44;4992345;28;20603;-77
2023/01/16 06:18:54;;;;;;;3.25;1.10;;;;;;;3.11;93.55;98899.06;4995009;28;20113;-77
2023/01/16 06:21:19;;;;;;;4.13;0.98;;;;;;;3.12;93.83;98898.19;4995064;28;20034;-76
2023/01/16 06:23:44;;;;;;;3.90;0.85;;;;;;;3.18;93.58;98898.19;4995076;28;20524;-76
2023/01/16 06:26:10;;;;;;;5.57;0.98;;;;;;;3.16;93.18;98889.50;4992827;28;20529;-77
2023/01/16 06:28:36;;;;;;;3.30;0.88;;;;;;;3.11;93.76;98888.63;4994424;28;20061;-76
2023/01/16 06:31:02;;;;;;;3.42;1.00;;;;;;;3.13;93.72;98884.28;4994915;28;20038;-76
2023/01/16 06:33:27;;;;;;;2.38;1.00;;;;;;;3.08;93.15;98874.72;4995416;28;20034;-76
2023/01/16 06:35:53;;;;;;;2.08;0.73;;;;;;;3.08;93.02;98861.69;4994828;28;20064;-75
2023/01/16 06:38:18;;;;;;;4.28;1.15;;;;;;;3.12;93.57;98873.00;4995912;28;20400;-77
2023/01/16 06:40:44;;;;;;;8.68;2.63;;;;;;;3.13;93.94;98863.44;4995673;28;20083;-76
2023/01/16 06:43:10;;;;;;;7.93;1.95;;;;;;;3.11;94.35;98859.97;4995159;28;20042;-76
2023/01/16 06:45:36;;;;;;;3.95;1.35;;;;;;;3.11;94.16;98868.66;4995112;28;20042;-76
2023/01/16 06:48:01;;;;;;;2.13;0.73;;;;;;;3.07;92.96;98859.97;4995294;28;20096;-76
2023/01/16 06:50:26;;;;;;;5.45;1.63;;;;;;;3.05;94.11;98853.03;4995226;28;20493;-77
2023/01/16 06:52:52;;;;;;;4.97;1.10;;;;;;;3.02;93.28;98853.91;4995002;28;20049;-76
2023/01/16 06:55:17;;;;;;;2.92;0.75;;;;;;;3.07;93.09;98864.34;4995122;28;20125;-76
2023/01/16 06:57:42;;;;;;;2.90;0.77;;;;;;;3.11;93.63;98871.25;4995094;28;20034;-77
2023/01/16 07:00:08;;;;;;;10.45;2.45;;;;;;;3.18;94.53;98872.13;4994755;28;20038;-76
2023/01/16 07:02:34;;;;;;;9.80;3.03;;;;;;;3.29;94.74;98875.53;4991188;28;20109;-76
2023/01/16 07:04:59;;;;;;;10.20;2.97;;;;;;;3.36;93.95;98872.06;4993748;28;20579;-77
2023/01/16 07:07:24;;;;;;;8.07;1.92;;;;;;;3.36;92.45;98869.44;4994804;28;20065;-76
2023/01/16 07:09:50;;;;;;;5.88;1.15;;;;;;;3.43;92.41;98873.78;4995297;28;20132;-76
2023/01/16 07:12:15;;;;;;;3.20;1.10;;;;;;;3.52;91.79;98865.03;4995122;28;20082;-77
2023/01/16 07:22:55;;;;;;;4.18;1.20;;;;;;;3.70;89.67;98862.34;4993761;28;20050;-76
2023/01/16 07:25:34;;;;;;;3.75;0.90;;;;;;;3.82;89.50;98861.38;4994487;28;20038;-76
2023/01/16 07:27:59;;;;;;;3.58;0.90;;;;;;;3.81;89.08;98859.66;4995204;28;20056;-77
2023/01/16 07:30:25;;;;;;;1.95;0.85;;;;;;;3.82;89.80;98852.69;4994943;28;20035;-76
2023/01/16 07:32:50;;;;;;;7.32;2.20;;;;;;;3.74;88.75;98855.34;4994607;28;20038;-76
2023/01/16 07:35:16;;;;;;;11.23;4.35;;;;;;;3.68;89.82;98843.19;4998440;23;20045;-76
2023/01/16 07:37:42;;;;;;;3.97;1.10;;;;;;;3.63;89.44;98844.09;4995589;28;20038;-77
2023/01/16 07:40:08;;;;;;;2.42;0.93;;;;;;;3.50;89.50;98843.31;5013674;28;20058;-77
2023/01/16 07:42:34;;;;;;;2.00;0.93;;;;;;;3.44;89.70;98844.19;4998415;28;20029;-76
2023/01/16 07:44:59;;;;;;;2.83;0.88;;;;;;;3.45;89.82;98840.69;5002913;28;20118;-76
2023/01/16 07:47:24;;;;;;;3.42;0.82;;;;;;;3.49;90.21;98844.19;5005767;28;20042;-76
2023/01/16 07:49:50;;;;;;;5.38;1.27;;;;;;;3.50;89.79;98840.69;5011820;28;20084;-76
2023/01/16 07:52:17;;;;;;;3.75;0.63;;;;;;;3.50;89.93;98833.72;5002254;28;20042;-76
2023/01/16 07:54:42;;;;;;;3.58;0.77;;;;;;;3.61;89.67;98831.06;5005763;28;20455;-76
2023/01/16 07:57:08;;;;;;;3.85;1.15;;;;;;;3.70;89.87;98823.19;5005149;28;20078;-77
2023/01/16 07:59:33;;;;;;;3.58;1.08;;;;;;;3.85;88.87;98817.03;5003656;28;20417;-76
2023/01/16 08:01:58;;;;;;;2.50;0.70;;;;;;;3.99;88.49;98805.63;5003416;28;20037;-76
2023/01/16 08:04:24;;;;;;;3.75;1.13;;;;;;;4.01;88.28;98799.50;4995950;28;20065;-77
2023/01/16 08:06:49;;;;;;;4.03;1.23;;;;;;;4.11;87.18;98788.13;4998395;28;20436;-76
2023/01/16 08:09:14;;;;;;;3.00;1.08;;;;;;;4.11;87.29;98777.69;5004320;28;20591;-76
2023/01/16 08:11:40;;;;;;;3.20;0.82;;;;;;;4.17;86.85;98775.00;5004711;28;20548;-76
2023/01/16 08:14:07;;;;;;;1.15;0.47;;;;;;;4.25;86.57;98767.13;5002011;28;20057;-76
2023/01/16 08:16:33;;;;;;;4.53;1.23;;;;;;;4.30;86.57;98760.09;5009113;28;20038;-77
2023/01/16 08:18:58;;;;;;;2.75;0.95;;;;;;;4.43;86.43;98755.63;5002801;28;20035;-77
2023/01/16 08:21:24;;;;;;;1.50;0.68;;;;;;;4.44;85.79;98756.50;5004840;28;20027;-76
2023/01/16 08:23:50;;;;;;;2.92;0.77;;;;;;;4.52;85.81;98752.06;5019348;28;20037;-76
2023/01/16 08:26:15;;;;;;;1.90;0.93;;;;;;;4.60;85.27;98747.59;5006559;28;20418;-77
2023/01/16 08:28:41;;;;;;;2.67;0.60;;;;;;;4.64;85.04;98743.19;5003688;28;20034;-77
2023/01/16 08:31:08;;;;;;;3.03;1.00;;;;;;;4.65;87.20;98739.72;5003473;28;20040;-76
2023/01/16 08:33:35;;;;;;;5.40;0.80;;;;;;;4.78;85.48;98728.25;5003181;28;20034;-76
2023/01/16 08:36:02;;;;;;;1.23;0.55;;;;;;;4.81;84.18;98721.22;5006926;28;20614;-76
2023/01/16 08:38:28;;;;;;;3.10;0.90;;;;;;;4.81;83.85;98718.63;5008779;28;20124;-76
2023/01/16 08:40:53;;;;;;;3.35;0.60;;;;;;;4.78;83.74;98709.97;5007912;28;20117;-77
2023/01/16 08:51:31;;;;;;;1.70;0.70;;;;;;;5.06;82.79;98673.88;5004691;28;20483;-77
2023/01/16 08:53:58;;;;;;;3.75;0.68;;;;;;;5.11;83.15;98679.91;5007156;28;20100;-76
2023/01/16 08:56:23;;;;;;;2.45;0.90;;;;;;;5.16;82.71;98665.03;5004211;28;20034;-76
2023/01/16 08:58:49;;;;;;;1.60;0.40;;;;;;;5.15;81.52;98652.81;5007260;28;20548;-76
2023/01/16 09:01:15;;;;;;;5.93;0.93;;;;;;;5.09;81.17;98654.66;5011336;28;20057;-76
2023/01/16 09:03:41;;;;;;;2.60;0.52;;;;;;;5.06;81.85;98652.97;5003001;28;20121;-76
2023/01/16 09:06:07;;;;;;;2.22;0.60;;;;;;;5.05;81.78;98649.44;5004148;28;20120;-76
2023/01/16 09:08:32;;;;;;;3.22;0.68;;;;;;;5.05;80.91;98643.38;5011368;28;20153;-75
2023/01/16 09:13:51;;;;;;;3.10;0.82;;;;;;;5.05;81.49;98636.38;5004056;28;20039;-77
2023/01/16 09:16:22;;;;;;;4.72;0.70;;;;;;;5.01;81.38;98633.84;5003318;28;20842;-76
2023/01/16 09:18:48;;;;;;;3.05;0.63;;;;;;;5.00;81.37;98635.63;5010181;28;20040;-77
2023/01/16 09:21:14;;;;;;;1.08;0.50;;;;;;;4.91;81.03;98627.03;5004664;28;20027;-76
2023/01/16 09:23:39;;;;;;;2.95;0.93;;;;;;;4.92;81.21;98620.91;5008584;28;20114;-76
2023/01/16 09:26:05;;;;;;;2.33;0.73;;;;;;;4.88;81.63;98624.47;5010190;28;20057;-76
2023/01/16 09:28:30;;;;;;;2.35;0.70;;;;;;;4.92;81.79;98613.06;5006694;28;20042;-77
2023/01/16 09:30:55;;;;;;;5.75;0.63;;;;;;;4.91;80.33;98608.72;5006939;28;20037;-76
2023/01/16 09:33:20;;;;;;;1.98;0.50;;;;;;;4.87;80.42;98607.03;5005854;28;20042;-76
2023/01/16 09:35:46;;;;;;;1.63;0.55;;;;;;;4.92;80.80;98600.00;5007022;28;20389;-77
2023/01/16 09:38:12;;;;;;;1.90;0.63;;;;;;;4.95;79.65;98592.09;5001249;28;20512;-76
2023/01/16 09:40:38;;;;;;;1.58;0.30;;;;;;;4.99;79.42;98584.19;5014555;28;20025;-76
2023/01/16 09:43:39;;;;;;;2.08;0.50;;;;;;;5.02;79.14;98589.38;5006140;28;20438;-76
2023/01/16 09:46:18;;;;;;;1.45;0.70;;;;;;;4.97;78.83;98575.50;4996861;28;20038;-76
2023/01/16 09:48:59;;;;;;;3.95;0.65;;;;;;;5.03;78.95;98574.53;5030228;28;20040;-76
2023/01/16 09:51:31;;;;;;;0.52;0.20;;;;;;;5.09;79.52;98557.94;5003128;28;20505;-78
2023/01/16 09:59:45;;;;;;;6.60;1.42;;;;;;;5.23;79.32;98550.72;5006373;28;20041;-76
2023/01/16 10:02:20;;;;;;;1.58;0.50;;;;;;;5.26;78.57;98553.25;5006755;28;20734;-76
2023/01/16 10:04:47;;;;;;;4.15;0.55;;;;;;;5.33;77.97;98540.97;5006203;28;20073;-76
2023/01/16 10:07:30;;;;;;;1.98;0.88;;;;;;;5.38;77.17;98546.97;5001276;28;20035;-77
2023/01/16 10:10:36;;;;;;;5.18;1.35;;;;;;;5.44;80.17;98532.03;5003803;28;20030;-76
2023/01/16 10:13:43;;;;;;;5.22;2.05;;;;;;;5.52;79.13;98521.44;5008815;28;20034;-77
2023/01/16 10:16:37;;;;;;;7.35;1.30;;;;;;;5.62;79.16;98515.13;5001872;28;20137;-76
2023/01/16 10:19:39;;;;;;;9.93;1.45;;;;;;;5.69;79.56;98503.69;5000739;28;20563;-76
2023/01/16 10:22:26;;;;;;;6.55;1.23;;;;;;;5.78;78.87;98501.78;5010172;28;20551;-77
2023/01/16 10:25:05;;;;;;;11.27;2.40;;;;;;;5.87;78.33;98496.38;5003914;28;20493;-76
2023/01/16 10:27:40;;;;;;;6.65;0.80;;;;;;;5.93;75.83;98486.66;5005043;28;20039;-76
2023/01/16 10:30:14;;;;;;;1.25;0.47;;;;;;;5.96;76.59;98490.13;5003349;28;20038;-76
2023/01/16 10:32:49;;;;;;;1.60;0.38;;;;;;;5.96;75.20;98477.88;5001188;28;20062;-76
2023/01/16 10:35:25;;;;;;;1.48;0.40;;;;;;;5.95;75.72;98477.91;5007349;28;20088;-76
2023/01/16 10:37:52;;;;;;;2.08;0.68;;;;;;;6.02;75.51;98464.66;5000300;28;20070;-76
2023/01/16 10:40:19;;;;;;;1.50;0.40;;;;;;;6.04;73.97;98462.88;5008933;28;20042;-76
2023/01/16 10:51:14;;;;;;;1.85;0.77;;;;;;;6.22;74.19;98435.41;5004941;28;20088;-76
2023/01/16 10:53:40;;;;;;;2.58;0.40;;;;;;;6.27;74.67;98435.31;5005569;28;20037;-76
2023/01/16 10:56:05;;;;;;;2.58;0.40;;;;;;;6.31;75.01;98429.09;5005827;28;20044;-75
2023/01/16 10:58:36;;;;;;;2.88;0.68;;;;;;;6.34;74.33;98424.69;5008765;28;20109;-75
2023/01/16 11:01:14;;;;;;;1.35;0.30;;;;;;;6.35;73.97;98420.28;5011806;28;20109;-76
2023/01/16 11:03:44;;;;;;;2.28;0.30;;;;;;;6.39;75.25;98411.44;5002944;28;20062;-76
2023/01/16 11:06:17;;;;;;;0.98;0.20;;;;;;;6.46;74.22;98406.94;5005769;28;20037;-75
2023/01/16 11:08:46;;;;;;;1.70;0.40;;;;;;;6.50;74.60;98411.22;5008813;28;20067;-75
2023/01/16 11:19:28;;;;;;;2.17;0.38;;;;;;;6.61;74.25;98374.28;5001764;28;20041;-76
2023/01/16 11:22:09;;;;;;;2.20;0.60;;;;;;;6.62;73.25;98360.25;4950614;28;20103;-76
2023/01/16 11:24:39;;;;;;;1.88;0.60;;;;;;;6.68;73.35;98354.84;5003456;28;20092;-77
2023/01/16 11:27:20;;;;;;;3.88;0.88;;;;;;;6.73;73.30;98352.97;5000478;28;20041;-77
2023/01/16 11:29:46;;;;;;;3.70;1.30;;;;;;;6.79;72.63;98348.44;5001045;28;20493;-76
2023/01/16 11:32:14;;;;;;;1.05;0.40;;;;;;;6.84;72.43;98339.59;5001515;28;20038;-76
2023/01/16 11:34:45;;;;;;;1.70;0.50;;;;;;;6.90;73.15;98329.81;4999878;28;20030;-76
2023/01/16 11:37:13;;;;;;;3.50;0.43;;;;;;;6.97;73.13;98327.91;5003404;28;20046;-77
2023/01/16 11:39:40;;;;;;;1.65;0.40;;;;;;;7.01;72.71;98319.03;5004952;28;20045;-77
2023/01/16 11:47:43;;;;;;;4.00;1.20;;;;;;;7.20;72.22;98290.53;4999604;28;20374;-76
2023/01/16 11:50:30;;;;;;;1.00;0.52;;;;;;;7.29;71.26;98284.19;5006959;28;20389;-76
2023/01/16 11:52:56;;;;;;;0.75;0.43;;;;;;;7.30;71.02;98281.50;4999002;28;20481;-76
2023/01/16 11:55:44;;;;;;;1.13;0.25;;;;;;;7.37;71.00;98277.78;5006081;28;20037;-77
2023/01/16 11:58:24;;;;;;;2.33;0.90;;;;;;;7.37;69.73;98271.69;5004254;28;20062;-77
2023/01/16 12:01:27;;;;;;;4.75;1.52;;;;;;;7.53;68.95;98266.84;5003929;28;20037;-76
2023/01/16 12:04:25;;;;;;;0.95;0.40;;;;;;;7.65;68.86;98258.56;4997852;28;20050;-76
2023/01/16 12:07:11;;;;;;;1.52;0.40;;;;;;;7.81;69.03;98257.22;4996988;28;20408;-76
2023/01/16 12:09:51;;;;;;;1.08;0.30;;;;;;;7.96;69.73;98255.00;4998099;28;20413;-76
2023/01/16 12:15:30;;;;;;;1.17;0.43;;;;;;;8.07;68.19;98237.16;5005215;28;20042;-76
2023/01/16 12:18:20;;;;;;;2.05;0.55;;;;;;;8.11;65.04;98233.50;5003188;28;20038;-76
2023/01/16 12:20:53;;;;;;;5.13;0.80;;;;;;;8.23;66.97;98219.97;5009818;28;20037;-76
2023/01/16 12:23:26;;;;;;;2.78;0.70;;;;;;;8.29;65.80;98214.47;5006986;28;20449;-76
2023/01/16 12:26:00;;;;;;;;;;;;;;;8.40;66.32;98208.88;5025528;28;20034;-77
2023/01/16 12:28:44;;;;;;;1.20;0.52;;;;;;;8.33;65.13;98197.72;5002679;28;19914;-77
2023/01/16 12:31:35;;;;;;;0.60;0.30;;;;;;;8.53;66.21;98194.41;5002220;28;20529;-76
2023/01/16 12:34:15;;;;;;;3.90;0.70;;;;;;;8.63;66.38;98184.44;5002653;28;20094;-76
2023/01/16 12:36:47;;;;;;;3.08;0.65;;;;;;;8.74;67.29;98184.03;5008259;28;20469;-76
2023/01/16 12:39:25;;;;;;;9.93;1.08;;;;;;;8.78;67.15;98181.25;5003676;28;20111;-76
2023/01/16 12:43:18;;;;;;;2.53;0.75;;;;;;;8.80;66.80;98170.66;5005938;28;20511;-76
2023/01/16 12:45:14;;;;;;;3.40;1.38;;;;;;;8.85;65.44;98166.09;4993163;28;20045;-76
2023/01/16 12:48:13;;;;;;;1.80;1.20;;;;;;;8.83;64.60;98156.53;5001866;28;20416;-75
2023/01/16 12:50:38;;;;;;;3.20;1.60;;;;;;;8.84;66.93;98153.00;5004890;28;20041;-77
2023/01/16 12:53:03;;;;;;;3.17;1.63;;;;;;;8.86;66.24;98145.94;5009496;28;20417;-76